Time;durP1;ratioP1;P1;durP2;ratioP2;P2;SDS_P1;SDS_P2;PMS_P1;PMS_P2;Temp;Humidity;BMP_temperature;BMP_pressure;BME280_temperature;BME280_humidity;BME280_pressure;Samples;Min_cycle;Max_cycle;Signal;HPM_P1;HPM_P2
2021/09/05 00:02:16;;;;;;;7.93;7.17;;;;;;;17.37;70.73;94966.78;5032426;28;20534;-80
2021/09/05 00:04:43;;;;;;;9.00;7.00;;;;;;;17.41;70.58;94973.41;5032146;28;20532;-80
2021/09/05 00:07:10;;;;;;;7.67;6.97;;;;;;;17.44;70.24;94971.25;5032086;28;20526;-80
2021/09/05 00:09:37;;;;;;;8.20;6.87;;;;;;;17.46;70.48;94965.75;5032200;28;20955;-80
2021/09/05 00:12:06;;;;;;;7.43;6.47;;;;;;;17.43;70.57;94964.28;5031819;28;20500;-80
2021/09/05 00:14:33;;;;;;;8.77;7.40;;;;;;;17.38;71.15;94965.78;5032082;28;20451;-80
2021/09/05 00:17:01;;;;;;;7.17;6.43;;;;;;;17.33;70.97;94963.63;5032076;28;21021;-80
2021/09/05 00:19:28;;;;;;;9.87;7.20;;;;;;;17.23;70.89;94971.78;5032029;28;20537;-80
2021/09/05 00:21:57;;;;;;;11.90;8.27;;;;;;;17.18;70.88;94962.69;5032311;28;20723;-80
2021/09/05 00:24:23;;;;;;;8.67;7.77;;;;;;;17.19;71.09;94977.59;5032879;28;20441;-80
2021/09/05 00:26:50;;;;;;;10.03;6.67;;;;;;;17.14;71.38;94972.78;5035610;28;20520;-80
2021/09/05 00:29:18;;;;;;;8.23;6.90;;;;;;;17.11;71.25;94977.59;5035419;28;20439;-80
2021/09/05 00:31:47;;;;;;;6.83;6.13;;;;;;;17.09;71.57;94969.81;5035561;28;20487;-80
2021/09/05 00:34:15;;;;;;;8.03;7.03;;;;;;;17.10;71.51;94978.59;5035428;28;20454;-80
2021/09/05 00:36:42;;;;;;;7.53;6.80;;;;;;;17.04;71.89;94978.25;5035734;28;20452;-81
2021/09/05 00:39:09;;;;;;;8.27;7.00;;;;;;;17.02;71.35;94976.78;5035499;28;20573;-80
2021/09/05 00:41:36;;;;;;;7.40;6.70;;;;;;;16.87;71.00;94976.63;5035782;28;20537;-80
2021/09/05 00:44:05;;;;;;;7.30;6.67;;;;;;;16.87;70.82;94978.44;5035667;28;20442;-80
2021/09/05 00:46:33;;;;;;;7.63;6.93;;;;;;;16.89;70.58;94976.47;5035390;28;20458;-79
2021/09/05 00:49:01;;;;;;;11.00;7.40;;;;;;;16.90;70.82;94984.25;5035178;28;20526;-80
2021/09/05 00:51:30;;;;;;;7.73;6.60;;;;;;;16.94;70.93;94987.38;5035391;28;20486;-79
2021/09/05 00:53:58;;;;;;;7.70;6.33;;;;;;;16.93;71.43;94986.56;5035335;28;20532;-79
2021/09/05 00:56:27;;;;;;;7.77;6.90;;;;;;;16.92;71.68;94981.44;5016644;28;20517;-79
2021/09/05 00:58:55;;;;;;;11.93;6.87;;;;;;;16.94;71.20;94988.22;5035829;28;20779;-79
2021/09/05 01:01:23;;;;;;;9.50;6.73;;;;;;;16.91;71.19;94985.91;5035280;28;20455;-79
2021/09/05 01:03:50;;;;;;;7.87;6.50;;;;;;;16.90;71.15;94983.41;5016769;28;20442;-80
2021/09/05 01:06:17;;;;;;;7.00;6.40;;;;;;;16.92;70.89;94998.16;5016616;28;20438;-79
2021/09/05 01:08:47;;;;;;;6.70;6.10;;;;;;;16.91;71.49;94991.19;5034933;28;20524;-79
2021/09/05 01:11:15;;;;;;;10.87;6.90;;;;;;;16.92;71.16;94990.19;5035013;28;20525;-79
2021/09/05 01:13:42;;;;;;;7.80;6.70;;;;;;;16.93;70.78;94991.03;5034712;28;20450;-79
2021/09/05 01:16:23;;;;;;;7.37;6.77;;;;;;;16.90;70.96;94997.50;5035051;28;20442;-79
2021/09/05 01:18:50;;;;;;;7.70;6.90;;;;;;;16.89;70.95;94997.66;5016195;28;20437;-79
2021/09/05 01:21:17;;;;;;;7.10;6.40;;;;;;;16.85;70.92;94999.81;5034746;28;20445;-79
2021/09/05 01:23:45;;;;;;;9.57;8.17;;;;;;;16.88;71.25;95002.13;5034557;28;20818;-80
2021/09/05 01:26:16;;;;;;;7.27;6.57;;;;;;;16.86;70.77;95000.66;5034617;28;20443;-79
2021/09/05 01:28:45;;;;;;;7.13;6.40;;;;;;;16.89;71.48;94997.66;5034848;28;20444;-79
2021/09/05 01:31:13;;;;;;;8.47;7.03;;;;;;;16.88;71.14;94998.66;5016130;28;20459;-80
2021/09/05 01:33:40;;;;;;;7.50;6.77;;;;;;;16.85;70.85;94997.16;5034632;28;20449;-80
2021/09/05 01:36:07;;;;;;;7.00;6.40;;;;;;;16.85;70.63;95005.13;5033271;28;20455;-79
2021/09/05 01:38:34;;;;;;;6.70;6.10;;;;;;;16.80;70.90;94998.66;5034467;28;20438;-79
2021/09/05 01:41:01;;;;;;;6.87;6.17;;;;;;;16.71;70.36;95003.94;5015747;28;20477;-80
2021/09/05 01:43:28;;;;;;;8.13;6.20;;;;;;;16.61;70.16;95003.25;5034428;28;20886;-80
2021/09/05 01:45:56;;;;;;;7.80;6.90;;;;;;;16.49;72.14;95003.75;5034551;28;20446;-79
2021/09/05 01:48:26;;;;;;;8.23;7.43;;;;;;;16.46;73.28;95007.53;5032333;28;20441;-80
2021/09/05 01:50:53;;;;;;;7.83;7.13;;;;;;;16.53;73.92;95002.41;5034071;28;20933;-79
2021/09/05 01:53:20;;;;;;;7.97;7.10;;;;;;;16.57;73.25;95006.41;5034013;28;20492;-80
2021/09/05 01:55:47;;;;;;;11.20;7.07;;;;;;;16.55;73.53;95009.22;5034297;28;20450;-80
2021/09/05 01:58:14;;;;;;;8.20;7.00;;;;;;;16.57;73.53;95011.69;5034484;28;20449;-79
2021/09/05 02:00:41;;;;;;;7.20;6.60;;;;;;;16.53;73.43;95010.38;5034357;28;20445;-80
2021/09/05 02:03:09;;;;;;;9.57;7.20;;;;;;;16.55;73.58;95008.38;5015544;28;20450;-80
2021/09/05 02:05:36;;;;;;;9.30;6.73;;;;;;;16.52;74.35;95009.53;4999188;28;20450;-79
2021/09/05 02:08:03;;;;;;;7.80;6.97;;;;;;;16.49;74.06;95014.34;5033824;28;20675;-80
2021/09/05 02:10:30;;;;;;;10.37;7.40;;;;;;;16.48;73.86;95020.59;5034144;28;20442;-79
2021/09/05 02:12:57;;;;;;;7.93;7.33;;;;;;;16.50;74.31;95021.28;5033652;28;20490;-80
2021/09/05 02:15:24;;;;;;;7.73;7.03;;;;;;;16.49;74.16;95017.81;5033848;28;20441;-79
2021/09/05 02:17:51;;;;;;;8.40;7.53;;;;;;;16.51;74.45;95017.66;5014993;28;20464;-79
2021/09/05 02:20:19;;;;;;;7.93;7.23;;;;;;;16.54;74.39;95017.31;5033548;28;20696;-79
2021/09/05 02:22:46;;;;;;;7.57;6.87;;;;;;;16.52;74.19;95014.00;5033647;28;20498;-79
2021/09/05 02:25:13;;;;;;;8.40;7.57;;;;;;;16.48;73.53;95012.66;5033696;28;20450;-79
2021/09/05 02:27:42;;;;;;;8.23;7.40;;;;;;;16.49;74.08;95017.81;5033702;28;20464;-79
2021/09/05 02:30:11;;;;;;;8.47;7.40;;;;;;;16.42;72.61;94999.06;5033411;28;20445;-79
2021/09/05 02:32:38;;;;;;;9.07;6.73;;;;;;;16.45;72.64;95007.69;5033307;28;20573;-79
2021/09/05 02:35:07;;;;;;;7.27;6.43;;;;;;;16.45;72.50;95013.81;5033344;28;20452;-80
2021/09/05 02:37:37;;;;;;;7.83;7.03;;;;;;;16.42;72.80;95008.84;5033219;28;20449;-79
2021/09/05 02:40:06;;;;;;;7.60;6.23;;;;;;;16.43;72.59;95013.16;5014834;28;20473;-79
2021/09/05 02:42:33;;;;;;;9.83;6.73;;;;;;;16.43;72.63;95018.44;5033336;28;20459;-79
2021/09/05 02:45:01;;;;;;;7.03;6.43;;;;;;;16.40;73.20;95018.78;5032993;28;20460;-79
2021/09/05 02:47:28;;;;;;;7.13;6.43;;;;;;;16.38;73.05;95010.16;5032971;28;20544;-80
2021/09/05 02:49:55;;;;;;;8.17;6.90;;;;;;;16.33;73.56;95013.31;5033366;28;20449;-79
2021/09/05 02:52:22;;;;;;;10.73;6.47;;;;;;;16.34;74.05;95011.47;5032813;28;21007;-79
2021/09/05 02:54:50;;;;;;;7.00;6.40;;;;;;;16.31;74.12;95014.44;5032928;28;20959;-79
2021/09/05 02:57:18;;;;;;;7.60;6.80;;;;;;;16.28;73.93;95018.25;5032928;28;20529;-79
2021/09/05 02:59:45;;;;;;;9.03;7.00;;;;;;;16.23;73.40;95017.09;5033016;28;20464;-79
2021/09/05 03:02:12;;;;;;;7.70;6.40;;;;;;;16.17;73.48;95020.34;5033018;28;20438;-79
2021/09/05 03:04:39;;;;;;;7.37;6.67;;;;;;;16.08;73.17;95012.41;5033153;28;20454;-80
2021/09/05 03:07:06;;;;;;;6.50;5.90;;;;;;;16.10;73.49;95014.88;5032967;28;20524;-79
2021/09/05 03:09:33;;;;;;;9.00;7.57;;;;;;;16.09;74.13;95021.16;5032797;28;20445;-79
2021/09/05 03:12:01;;;;;;;6.57;5.87;;;;;;;16.09;74.14;95022.00;5032702;28;20568;-79
2021/09/05 03:14:28;;;;;;;6.73;6.03;;;;;;;16.08;73.52;95016.88;5032559;28;20802;-79
2021/09/05 03:16:55;;;;;;;9.30;6.97;;;;;;;16.05;73.61;95018.03;5013952;28;20463;-79
2021/09/05 03:19:22;;;;;;;7.43;6.50;;;;;;;16.09;73.72;95022.00;5032655;28;20442;-79
2021/09/05 03:21:49;;;;;;;7.10;6.50;;;;;;;16.02;74.21;95018.34;5032391;28;20939;-79
2021/09/05 03:24:16;;;;;;;7.70;6.43;;;;;;;15.99;73.92;95023.97;5032795;28;20448;-79
2021/09/05 03:26:43;;;;;;;7.30;6.60;;;;;;;15.98;74.47;95032.06;5032557;28;21005;-79
2021/09/05 03:29:11;;;;;;;9.83;7.37;;;;;;;15.85;75.27;95043.06;5032257;28;20451;-80
2021/09/05 03:31:38;;;;;;;8.43;6.60;;;;;;;15.67;75.68;95042.34;5032367;28;20537;-79
2021/09/05 03:34:05;;;;;;;9.37;8.23;;;;;;;15.56;76.63;95047.84;5013688;28;20449;-79
2021/09/05 03:36:32;;;;;;;7.60;6.80;;;;;;;15.55;76.79;95051.47;5032291;28;20960;-79
2021/09/05 03:38:59;;;;;;;14.63;7.83;;;;;;;15.57;77.25;95052.16;5032197;28;20538;-79
2021/09/05 03:41:26;;;;;;;12.33;6.90;;;;;;;15.62;77.07;95052.56;5032246;28;20450;-79
2021/09/05 03:43:53;;;;;;;9.73;8.20;;;;;;;15.61;77.74;95056.16;5032162;28;20945;-79
2021/09/05 03:46:21;;;;;;;10.90;7.80;;;;;;;15.61;77.52;95062.31;5032203;28;20446;-79
2021/09/05 03:48:48;;;;;;;15.73;7.47;;;;;;;15.65;77.44;95061.00;5032315;28;20986;-79
2021/09/05 03:51:15;;;;;;;13.13;8.33;;;;;;;15.69;77.20;95064.16;5032637;28;20438;-80
2021/09/05 03:53:43;;;;;;;11.30;7.13;;;;;;;15.69;77.39;95053.59;5032053;28;20816;-80
2021/09/05 03:56:10;;;;;;;7.67;6.90;;;;;;;15.71;77.90;95064.84;5014070;28;20474;-79
2021/09/05 03:58:37;;;;;;;12.27;8.13;;;;;;;15.55;77.60;95068.16;5013583;28;20861;-79
2021/09/05 04:01:04;;;;;;;14.83;7.70;;;;;;;15.53;77.95;95069.31;5036226;28;20451;-79
2021/09/05 04:03:33;;;;;;;16.13;8.20;;;;;;;15.43;78.84;95064.97;5035925;28;20455;-79
2021/09/05 04:06:01;;;;;;;9.37;8.37;;;;;;;15.40;78.62;95075.88;5036123;28;20453;-79
2021/09/05 04:08:32;;;;;;;7.83;6.83;;;;;;;15.35;79.03;95072.84;5017826;28;20442;-79
2021/09/05 04:10:58;;;;;;;9.90;8.80;;;;;;;15.29;79.27;95072.63;5018247;28;20450;-79
2021/09/05 04:13:25;;;;;;;9.93;7.40;;;;;;;15.32;79.80;95072.31;5017147;28;20506;-79
2021/09/05 04:15:52;;;;;;;9.53;8.20;;;;;;;15.35;80.07;95078.16;5036094;28;20539;-79
2021/09/05 04:18:19;;;;;;;9.90;7.73;;;;;;;15.49;79.67;95080.22;5035893;28;20453;-79
2021/09/05 04:20:48;;;;;;;11.50;8.50;;;;;;;15.82;79.73;95079.59;5035691;28;20448;-79
2021/09/05 04:23:14;;;;;;;10.53;7.10;;;;;;;16.30;78.38;95089.59;5036155;28;20517;-79
2021/09/05 04:25:41;;;;;;;15.70;8.00;;;;;;;16.96;75.07;95081.66;5035977;28;20452;-79
2021/09/05 04:28:08;;;;;;;8.07;7.13;;;;;;;17.66;71.94;95081.16;5035482;28;20811;-80
2021/09/05 04:30:35;;;;;;;9.13;7.80;;;;;;;18.17;69.42;95087.81;5035684;28;20447;-79
2021/09/05 04:33:05;;;;;;;6.97;6.37;;;;;;;18.41;67.08;95086.91;5035513;28;20484;-79
2021/09/05 04:35:32;;;;;;;7.60;6.77;;;;;;;18.54;66.20;95092.50;5035395;28;20454;-79
2021/09/05 04:38:00;;;;;;;9.07;7.67;;;;;;;18.75;66.50;95091.06;5035451;28;20448;-79
2021/09/05 04:40:27;;;;;;;10.27;7.37;;;;;;;19.26;65.43;95089.56;5035417;28;20610;-79
2021/09/05 04:42:54;;;;;;;8.00;7.20;;;;;;;19.71;63.03;95094.03;5036073;28;20457;-80
2021/09/05 04:45:22;;;;;;;8.07;6.87;;;;;;;20.01;61.44;95092.25;5036057;28;20433;-81
2021/09/05 04:47:49;;;;;;;7.67;7.00;;;;;;;20.19;60.82;95085.72;5035389;28;20568;-80
2021/09/05 04:50:15;;;;;;;7.60;6.57;;;;;;;20.22;59.53;95086.16;5035465;28;20457;-80
2021/09/05 04:52:42;;;;;;;7.00;6.40;;;;;;;20.13;59.46;95087.28;5000518;28;20478;-87
2021/09/05 04:55:14;;;;;;;7.80;6.67;;;;;;;20.39;58.88;95086.81;5034583;28;20537;-86
2021/09/05 04:57:41;;;;;;;12.47;6.90;;;;;;;20.63;57.41;95081.19;4998975;28;20451;-86
2021/09/05 05:00:09;;;;;;;10.37;6.47;;;;;;;20.89;57.16;95088.69;5015878;28;20439;-78
2021/09/05 05:02:36;;;;;;;7.13;5.97;;;;;;;21.29;55.90;95092.59;5015355;28;20457;-81
2021/09/05 05:05:06;;;;;;;12.17;7.30;;;;;;;21.50;54.33;95081.09;5014942;28;20454;-83
2021/09/05 05:07:33;;;;;;;7.93;7.13;;;;;;;21.16;55.05;95087.13;4996881;28;20809;-83
2021/09/05 05:10:00;;;;;;;7.30;6.17;;;;;;;20.93;55.95;95089.94;5015276;28;20532;-82
2021/09/05 05:12:28;;;;;;;9.83;7.67;;;;;;;20.75;57.28;95086.03;5015405;28;20445;-81
2021/09/05 05:14:58;;;;;;;7.93;7.13;;;;;;;20.36;58.64;95093.34;5015021;28;20451;-82
2021/09/05 05:17:25;;;;;;;9.00;7.17;;;;;;;19.89;60.01;95095.53;5015202;28;20907;-81
2021/09/05 05:19:54;;;;;;;12.23;7.37;;;;;;;19.74;61.74;95099.00;5014941;28;20538;-81
2021/09/05 05:22:20;;;;;;;7.57;6.87;;;;;;;19.43;61.72;95087.63;5014909;28;20965;-82
2021/09/05 05:24:47;;;;;;;10.70;8.80;;;;;;;19.14;62.79;95094.50;4996489;28;20482;-81
2021/09/05 05:27:14;;;;;;;8.37;7.57;;;;;;;18.97;64.36;95097.44;5015199;28;20446;-80
2021/09/05 05:29:43;;;;;;;9.70;8.20;;;;;;;18.92;66.02;95086.50;5017574;28;20928;-87
2021/09/05 05:32:10;;;;;;;10.20;9.30;;;;;;;18.80;66.73;95094.06;5034428;28;20446;-88
2021/09/05 05:34:37;;;;;;;10.83;8.80;;;;;;;18.81;72.11;95096.53;5034586;28;20516;-87
2021/09/05 05:37:07;;;;;;;13.40;8.63;;;;;;;18.52;67.15;95094.50;5034452;28;20941;-88
2021/09/05 05:39:34;;;;;;;10.17;7.70;;;;;;;17.97;68.97;95112.31;5033582;28;20562;-87
2021/09/05 05:42:01;;;;;;;10.83;9.17;;;;;;;17.97;69.83;95107.00;5026738;28;20443;-87
2021/09/05 05:44:28;;;;;;;8.60;7.70;;;;;;;17.93;69.43;95106.50;5024901;28;20539;-88
2021/09/05 05:46:56;;;;;;;11.20;8.40;;;;;;;18.09;68.60;95110.94;5001005;28;20477;-87
2021/09/05 05:49:23;;;;;;;11.50;8.00;;;;;;;18.30;67.99;95105.06;4995849;28;20459;-87
2021/09/05 05:51:54;;;;;;;8.67;7.57;;;;;;;18.42;66.13;95114.31;5022068;28;20973;-87
2021/09/05 05:54:21;;;;;;;14.00;8.10;;;;;;;18.74;65.26;95110.69;4995906;28;20550;-86
2021/09/05 05:56:51;;;;;;;9.43;6.70;;;;;;;19.35;64.73;95114.28;5014568;28;20675;-85
2021/09/05 05:59:19;;;;;;;8.03;6.40;;;;;;;20.10;63.18;95116.94;5014196;28;20488;-85
2021/09/05 06:01:46;;;;;;;12.73;7.43;;;;;;;20.46;59.65;95108.25;5014159;28;20443;-83
2021/09/05 06:04:14;;;;;;;9.40;7.37;;;;;;;20.78;59.54;95110.50;5014321;28;20527;-85
2021/09/05 06:06:41;;;;;;;7.50;6.77;;;;;;;21.34;58.01;95118.72;5014098;28;20530;-86
2021/09/05 06:09:08;;;;;;;7.80;7.00;;;;;;;21.82;56.44;95110.94;5014067;28;20432;-86
2021/09/05 06:11:35;;;;;;;8.23;7.30;;;;;;;22.25;57.55;95115.16;4995809;28;20476;-86
2021/09/05 06:14:02;;;;;;;13.63;7.83;;;;;;;22.54;54.48;95100.72;5013760;28;20980;-85
2021/09/05 06:16:29;;;;;;;10.80;7.80;;;;;;;22.82;52.59;95116.72;5017758;28;20458;-85
2021/09/05 06:18:55;;;;;;;13.43;7.23;;;;;;;22.89;53.74;95113.25;5033500;28;20457;-85
2021/09/05 06:21:24;;;;;;;7.97;7.10;;;;;;;22.93;55.34;95117.19;5029136;28;20992;-86
2021/09/05 06:23:51;;;;;;;10.67;7.77;;;;;;;22.65;52.85;95112.72;5023923;28;20447;-85
2021/09/05 06:26:18;;;;;;;8.90;7.17;;;;;;;22.40;54.02;95116.91;5032915;28;20452;-85
2021/09/05 06:28:45;;;;;;;10.13;8.57;;;;;;;22.19;55.97;95118.63;5034084;28;20448;-86
2021/09/05 06:31:14;;;;;;;10.20;8.17;;;;;;;21.79;56.91;95111.31;5033008;28;20448;-86
2021/09/05 06:33:41;;;;;;;9.00;7.93;;;;;;;21.58;57.45;95126.34;5034460;28;20472;-85
2021/09/05 06:36:08;;;;;;;11.03;8.20;;;;;;;21.40;66.56;95126.00;5034227;28;20520;-85
2021/09/05 06:38:37;;;;;;;13.30;7.67;;;;;;;21.38;63.33;95136.00;5034157;28;20441;-86
2021/09/05 06:41:04;;;;;;;11.70;8.07;;;;;;;21.43;65.73;95128.28;5034575;28;20477;-85
2021/09/05 06:43:31;;;;;;;9.37;7.10;;;;;;;21.47;59.93;95140.22;5035225;28;20862;-80
2021/09/05 06:45:57;;;;;;;12.80;7.20;;;;;;;21.43;59.68;95138.97;5034025;28;20436;-81
2021/09/05 06:48:24;;;;;;;9.00;7.90;;;;;;;21.20;59.99;95140.94;5032344;28;20453;-81
2021/09/05 06:50:53;;;;;;;9.40;7.57;;;;;;;20.99;60.71;95137.22;5034751;28;20530;-81
2021/09/05 06:53:20;;;;;;;7.93;6.63;;;;;;;20.83;60.89;95136.63;5033805;28;20998;-81
2021/09/05 06:55:48;;;;;;;7.67;6.87;;;;;;;20.70;62.38;95137.28;5048539;28;20967;-81
2021/09/05 06:58:15;;;;;;;7.93;7.23;;;;;;;20.71;60.98;95141.59;5033945;28;20532;-81
2021/09/05 07:00:42;;;;;;;7.37;6.70;;;;;;;20.62;61.89;95145.38;5034834;28;20518;-81
2021/09/05 07:03:09;;;;;;;10.43;6.83;;;;;;;20.81;61.71;95139.44;5033729;28;20573;-81
2021/09/05 07:05:38;;;;;;;9.43;7.57;;;;;;;21.22;58.46;95141.56;5033499;28;20441;-81
2021/09/05 07:08:07;;;;;;;6.67;6.07;;;;;;;21.60;58.77;95144.84;5033902;28;20427;-81
2021/09/05 07:10:34;;;;;;;8.57;6.00;;;;;;;21.88;58.69;95148.38;5033891;28;20448;-82
2021/09/05 07:13:03;;;;;;;7.27;6.47;;;;;;;21.96;56.92;95150.91;5034152;28;20778;-80
2021/09/05 07:15:31;;;;;;;8.97;6.40;;;;;;;22.12;58.20;95149.00;5033959;28;20444;-81
2021/09/05 07:17:58;;;;;;;7.27;6.57;;;;;;;22.01;58.14;95145.00;5033865;28;20455;-81
2021/09/05 07:20:25;;;;;;;7.07;6.30;;;;;;;22.03;60.06;95153.66;5048531;28;20816;-81
2021/09/05 07:22:52;;;;;;;6.97;6.27;;;;;;;21.77;57.20;95154.25;5033485;28;20432;-81
2021/09/05 07:25:20;;;;;;;7.67;6.93;;;;;;;21.60;58.73;95151.03;5033474;28;20439;-81
2021/09/05 07:27:48;;;;;;;8.33;7.17;;;;;;;21.31;59.85;95157.31;5033564;28;20462;-82
2021/09/05 07:30:17;;;;;;;9.90;7.07;;;;;;;21.10;60.34;95162.56;5033549;28;20451;-81
2021/09/05 07:32:44;;;;;;;8.97;7.20;;;;;;;20.88;61.46;95159.06;5033335;28;20518;-81
2021/09/05 07:35:11;;;;;;;9.13;6.93;;;;;;;20.73;60.91;95158.25;5032277;28;20473;-81
2021/09/05 07:37:39;;;;;;;14.23;7.93;;;;;;;20.54;62.36;95159.66;5033247;28;20435;-81
2021/09/05 07:40:07;;;;;;;10.40;8.37;;;;;;;20.45;62.94;95159.91;5034019;28;20489;-81
2021/09/05 07:42:34;;;;;;;12.50;9.30;;;;;;;20.40;63.85;95163.97;5033068;28;20444;-81
2021/09/05 07:45:01;;;;;;;12.53;7.73;;;;;;;20.22;64.15;95166.09;5015218;28;20457;-81
2021/09/05 07:47:29;;;;;;;9.50;8.37;;;;;;;20.14;64.90;95157.38;5032309;28;20659;-81
2021/09/05 07:49:57;;;;;;;18.50;8.43;;;;;;;20.19;65.21;95169.13;5032228;28;20455;-81
2021/09/05 07:52:24;;;;;;;11.43;9.30;;;;;;;20.26;63.73;95174.59;5031999;28;21037;-81
2021/09/05 07:54:51;;;;;;;11.80;7.40;;;;;;;20.38;64.51;95173.94;5046551;28;20999;-82
2021/09/05 07:57:18;;;;;;;12.50;9.37;;;;;;;20.48;64.60;95165.69;5032577;28;20533;-81
2021/09/05 07:59:45;;;;;;;11.03;9.00;;;;;;;20.79;63.65;95170.81;5032077;28;20448;-81
2021/09/05 08:02:11;;;;;;;12.53;9.30;;;;;;;21.27;63.07;95171.22;5032148;28;20458;-81
2021/09/05 08:04:40;;;;;;;10.37;8.90;;;;;;;21.69;61.48;95165.09;5046266;28;20447;-82
2021/09/05 08:07:07;;;;;;;14.90;9.37;;;;;;;22.03;59.21;95167.03;5029969;28;20522;-82
2021/09/05 08:09:34;;;;;;;18.60;9.90;;;;;;;22.26;59.17;95166.78;5032063;28;20440;-82
2021/09/05 08:12:01;;;;;;;10.37;8.40;;;;;;;22.41;59.66;95162.16;5031931;28;20444;-82
2021/09/05 08:14:27;;;;;;;9.47;7.73;;;;;;;22.53;58.33;95165.09;5032022;28;20488;-82
2021/09/05 08:16:54;;;;;;;12.47;7.60;;;;;;;22.69;58.51;95177.34;5029786;28;21035;-82
2021/09/05 08:19:21;;;;;;;13.30;7.23;;;;;;;22.77;56.53;95161.94;5032570;28;20885;-82
2021/09/05 08:21:50;;;;;;;12.50;8.20;;;;;;;22.91;56.50;95162.06;5029936;28;20452;-82
2021/09/05 08:24:17;;;;;;;13.00;8.53;;;;;;;23.00;55.27;95163.53;5029949;28;20448;-82
2021/09/05 08:26:44;;;;;;;10.13;8.33;;;;;;;23.17;57.21;95162.16;5031679;28;20487;-82
2021/09/05 08:29:11;;;;;;;9.83;7.80;;;;;;;23.22;54.75;95159.69;5031957;28;20463;-82
2021/09/05 08:31:38;;;;;;;9.83;8.63;;;;;;;23.25;55.94;95161.16;5031878;28;20916;-82
2021/09/05 08:34:06;;;;;;;12.10;8.10;;;;;;;23.35;55.52;95159.72;5031850;28;20485;-82
2021/09/05 08:36:33;;;;;;;10.47;7.60;;;;;;;23.42;55.35;95157.09;5013363;28;20445;-82
2021/09/05 08:39:01;;;;;;;10.50;8.60;;;;;;;23.34;53.98;95154.56;5031808;28;20449;-82
2021/09/05 08:41:28;;;;;;;13.83;8.33;;;;;;;23.34;53.91;95158.06;5031671;28;20539;-83
2021/09/05 08:43:57;;;;;;;12.33;7.60;;;;;;;23.40;53.20;95162.63;5031553;28;20537;-82
2021/09/05 08:46:24;;;;;;;9.60;7.17;;;;;;;23.27;52.87;95151.88;5034088;28;20529;-82
2021/09/05 08:48:51;;;;;;;9.60;7.90;;;;;;;23.27;53.29;95157.25;5035404;28;20532;-82
2021/09/05 08:51:18;;;;;;;8.80;7.60;;;;;;;23.31;54.34;95149.63;5035843;28;20449;-82
2021/09/05 08:53:46;;;;;;;8.77;7.87;;;;;;;23.17;54.49;95154.13;5035539;28;20572;-82
2021/09/05 08:56:14;;;;;;;9.03;7.30;;;;;;;23.28;55.24;95158.06;5035081;28;20490;-82
2021/09/05 08:58:41;;;;;;;8.00;7.30;;;;;;;23.27;53.53;95154.56;5016923;28;20515;-82
2021/09/05 09:01:18;;;;;;;8.53;7.67;;;;;;;23.50;52.74;95154.22;5034959;28;20526;-82
2021/09/05 09:03:45;;;;;;;9.47;7.40;;;;;;;23.73;52.81;95153.88;5035290;28;20516;-82
2021/09/05 09:06:18;;;;;;;11.77;6.63;;;;;;;24.07;53.04;95153.66;5033063;28;20524;-82
2021/09/05 09:08:55;;;;;;;17.87;7.60;;;;;;;24.35;51.47;95153.47;5035108;28;20459;-82
2021/09/05 09:11:23;;;;;;;8.07;6.43;;;;;;;24.55;48.54;95156.09;5035172;28;20453;-82
2021/09/05 09:13:56;;;;;;;11.47;7.53;;;;;;;24.69;48.42;95149.69;5016219;28;20481;-82
2021/09/05 09:16:34;;;;;;;7.60;6.37;;;;;;;24.84;45.59;95145.91;5034999;28;20454;-82
2021/09/05 09:19:01;;;;;;;6.17;5.57;;;;;;;24.79;47.12;95143.03;5016291;28;20456;-83
2021/09/05 09:21:37;;;;;;;7.47;6.37;;;;;;;24.91;46.14;95136.00;5034878;28;20450;-82
2021/09/05 09:24:10;;;;;;;6.10;5.70;;;;;;;25.01;42.51;95131.84;5034880;28;20454;-82
2021/09/05 09:26:38;;;;;;;6.63;5.97;;;;;;;25.04;44.76;95135.13;5034597;28;20525;-82
2021/09/05 09:29:16;;;;;;;6.17;5.67;;;;;;;25.11;42.91;95117.94;5035236;28;20522;-82
2021/09/05 09:31:45;;;;;;;6.83;5.93;;;;;;;25.10;44.05;95124.34;5034620;28;20453;-82
2021/09/05 09:34:20;;;;;;;6.80;6.00;;;;;;;25.06;44.33;95125.81;5015832;28;20540;-82
2021/09/05 09:36:47;;;;;;;6.13;5.57;;;;;;;24.87;45.01;95124.84;5034781;28;20536;-82
2021/09/05 09:39:16;;;;;;;7.90;5.60;;;;;;;24.73;46.55;95125.09;5034492;28;20568;-82
2021/09/05 09:41:44;;;;;;;7.27;5.70;;;;;;;24.53;44.52;95122.47;5034553;28;20456;-82
2021/09/05 09:44:15;;;;;;;7.20;5.20;;;;;;;24.65;44.38;95121.63;5034084;28;20536;-82
2021/09/05 09:46:43;;;;;;;8.63;5.23;;;;;;;24.68;42.87;95118.50;5034468;28;20442;-82
2021/09/05 09:49:14;;;;;;;8.50;5.03;;;;;;;24.83;43.80;95112.03;5034332;28;21021;-82
2021/09/05 09:51:42;;;;;;;6.03;5.53;;;;;;;24.95;42.30;95116.56;5015482;28;20441;-82
2021/09/05 09:54:09;;;;;;;6.10;5.33;;;;;;;24.92;40.81;95108.09;4983080;28;20596;-82
2021/09/05 09:56:36;;;;;;;5.70;5.20;;;;;;;24.90;41.06;95112.88;5014741;28;20964;-82
2021/09/05 09:59:07;;;;;;;7.53;5.43;;;;;;;24.77;43.21;95112.91;5034115;28;20866;-83
2021/09/05 10:01:36;;;;;;;6.40;5.80;;;;;;;24.79;41.65;95111.66;5033332;28;20454;-82
2021/09/05 10:04:05;;;;;;;6.93;5.43;;;;;;;24.89;41.10;95112.03;5032862;28;20458;-82
2021/09/05 10:06:33;;;;;;;5.20;4.70;;;;;;;24.81;41.38;95108.75;5035372;28;20437;-82
2021/09/05 10:09:03;;;;;;;5.43;4.80;;;;;;;24.83;40.78;95118.22;5033350;28;20454;-83
2021/09/05 10:11:30;;;;;;;8.10;5.37;;;;;;;24.66;40.76;95112.53;5035616;28;20473;-82
2021/09/05 10:13:58;;;;;;;7.90;4.80;;;;;;;24.94;41.64;95103.34;5034845;28;20452;-82
2021/09/05 10:16:27;;;;;;;6.40;5.80;;;;;;;24.93;39.23;95107.06;5034713;28;20449;-82
2021/09/05 10:19:03;;;;;;;6.17;5.10;;;;;;;24.84;39.37;95098.41;5034647;28;20444;-87
2021/09/05 10:21:31;;;;;;;5.17;4.67;;;;;;;24.92;42.78;95095.50;5037948;28;20877;-88
2021/09/05 10:23:59;;;;;;;6.83;5.60;;;;;;;24.90;42.18;95099.44;5034733;28;20521;-88
2021/09/05 10:26:27;;;;;;;6.20;5.40;;;;;;;24.83;40.46;95098.63;5034836;28;20540;-84
2021/09/05 10:28:56;;;;;;;8.23;7.23;;;;;;;24.76;42.57;95089.78;5034760;28;20457;-85
2021/09/05 10:31:25;;;;;;;8.40;5.40;;;;;;;24.64;42.15;95101.19;5034411;28;20444;-84
2021/09/05 10:33:54;;;;;;;5.37;4.97;;;;;;;24.56;42.67;95098.72;5034542;28;20445;-85
2021/09/05 10:36:23;;;;;;;6.63;6.03;;;;;;;24.64;41.57;95093.13;5034533;28;20436;-84
2021/09/05 10:38:51;;;;;;;7.43;5.67;;;;;;;24.75;42.19;95094.31;5034222;28;20437;-85
2021/09/05 10:41:27;;;;;;;6.13;5.27;;;;;;;24.77;41.85;95094.94;5034222;28;20452;-85
2021/09/05 10:44:09;;;;;;;7.83;6.13;;;;;;;24.71;41.71;95095.78;5034357;28;20437;-84
2021/09/05 10:46:47;;;;;;;5.80;5.30;;;;;;;24.77;42.14;95094.09;5034156;28;20446;-84
2021/09/05 10:49:16;;;;;;;5.73;4.80;;;;;;;24.73;41.46;95098.25;5034589;28;20469;-85
2021/09/05 10:51:48;;;;;;;10.60;6.10;;;;;;;24.84;40.16;95097.59;5034679;28;20541;-85
2021/09/05 10:54:23;;;;;;;6.27;5.47;;;;;;;24.88;40.93;95093.47;5035073;28;20454;-85
2021/09/05 10:56:50;;;;;;;7.10;6.03;;;;;;;24.97;40.83;95084.94;5034171;28;21058;-85
2021/09/05 10:59:19;;;;;;;6.90;5.57;;;;;;;25.03;39.25;95094.03;5033937;28;20541;-85
2021/09/05 11:01:58;;;;;;;6.30;5.70;;;;;;;24.89;39.26;95090.56;5033393;28;20458;-83
2021/09/05 11:04:41;;;;;;;6.50;5.90;;;;;;;25.00;40.69;95094.47;5034349;28;20512;-86
2021/09/05 11:07:11;;;;;;;6.30;5.57;;;;;;;24.90;40.86;95094.06;4992458;28;20465;-85
2021/09/05 11:16:21;;;;;;;6.60;5.73;;;;;;;24.50;41.61;95096.88;4991364;28;20518;-79
2021/09/05 11:18:48;;;;;;;7.73;6.00;;;;;;;24.70;40.59;95103.03;4944254;28;20554;-80
2021/09/05 11:21:26;;;;;;;5.60;5.10;;;;;;;24.69;39.52;95100.53;4991977;28;20457;-79
2021/09/05 11:23:55;;;;;;;5.53;5.03;;;;;;;24.80;42.21;95094.50;4992196;28;20542;-79
2021/09/05 11:26:21;;;;;;;6.60;6.00;;;;;;;25.07;41.46;95091.72;4992128;28;20536;-79
2021/09/05 11:28:50;;;;;;;7.30;5.50;;;;;;;25.25;42.09;95089.97;4992193;28;20444;-79
2021/09/05 11:31:17;;;;;;;8.43;6.30;;;;;;;25.16;40.74;95091.28;4992092;28;21046;-78
2021/09/05 11:33:44;;;;;;;6.43;5.83;;;;;;;25.44;39.49;95092.75;4991917;28;20563;-78
2021/09/05 11:36:11;;;;;;;5.60;5.10;;;;;;;25.55;40.34;95089.38;4991913;28;20488;-79
2021/09/05 11:38:39;;;;;;;6.10;5.30;;;;;;;25.58;38.03;95084.38;4991830;28;20811;-79
2021/09/05 11:41:07;;;;;;;5.73;5.03;;;;;;;25.40;38.59;95094.22;4991603;28;20470;-80
2021/09/05 11:43:36;;;;;;;4.80;4.50;;;;;;;25.28;39.88;95094.91;4994796;28;20531;-80